Terminal Aerodrome Forecast
Issued by NWS Jackson, MS

Home | Current Version | Previous Version | Text Only | Print | Product List | Glossary On
Versions: 1 2 3 4 5 6 7 8 9 10 11 12 13
000
FTUS44 KJAN 211700
TAFGWO
TAF
KGWO 211727Z 2118/2218 VRB03KT P6SM SKC
     FM220400 14005KT P6SM OVC050
     FM220800 16008KT P6SM OVC015
     FM221100 16007KT 5SM BR OVC007=

USA.gov is the U.S. government's official web portal to all federal, state and local government web resources and services.